WetterOnline ( https://www.wetteronline.ch )

Wetter aktuell Oschersleben (Bode)

Aktuelles Wetter: Ummendorf (163m)

6-stündlich | Neueste Meldungen
Ortszeit Temperatur Wetter
Di, 12.11. 13:00 7.4° C bewölkt
Di, 12.11. 7:00 2.6° C leicht bewölkt
Di, 12.11. 1:00 2.6° C bewölkt
Mo, 11.11. 19:00 2.5° C bedeckt
Mo, 11.11. 13:00 5.4° C wolkenlos
Mo, 11.11. 7:00 -0.9° C wolkenlos
Mo, 11.11. 1:00 1.2° C wolkenlos
So, 10.11. 19:00 4.6° C bewölkt
Ortszeit Temperatur Wetter
Di, 12.11. 17:30 4.9° C fast wolkenlos
Di, 12.11. 17:20 4.9° C fast wolkenlos
Di, 12.11. 17:10 5.1° C fast wolkenlos
Di, 12.11. 17:00 5.5° C wolkenlos
Di, 12.11. 16:50 5.5° C wolkenlos
Di, 12.11. 16:40 5.7° C wolkenlos
Di, 12.11. 16:30 5.9° C fast wolkenlos
Di, 12.11. 16:00 6.8° C leicht bewölkt
Di, 12.11. 15:30 7.2° C leicht bewölkt
Di, 12.11. 15:00 6.9° C fast wolkenlos
Di, 12.11. 14:30 7.3° C wolkenlos
Di, 12.11. 14:00 6.8° C leicht bewölkt
Ortszeit Relative Feuchte Sichtweite
Di, 12.11. 13:00 67% 45 km
Di, 12.11. 7:00 84% 23 km
Di, 12.11. 1:00 79% 24 km
Mo, 11.11. 19:00 82% 28 km
Mo, 11.11. 13:00 73% 35 km
Mo, 11.11. 7:00 97% 6 km
Mo, 11.11. 1:00 94% 8 km
So, 10.11. 19:00 85% 26 km
Ortszeit Relative Feuchte Sichtweite
Di, 12.11. 17:30 71% 35 km
Di, 12.11. 17:20 71% -
Di, 12.11. 17:10 70% -
Di, 12.11. 17:00 69% 45 km
Di, 12.11. 16:50 69% -
Di, 12.11. 16:40 68% -
Di, 12.11. 16:30 69% 60 km
Di, 12.11. 16:00 66% >70 km
Di, 12.11. 15:30 63% 60 km
Di, 12.11. 15:00 65% 50 km
Di, 12.11. 14:30 65% 40 km
Di, 12.11. 14:00 66% 50 km
Ortszeit Niederschlagsmenge Niederschlagsart
Di, 12.11. 13:00 0.0 l/m2 in 6 Std. -
Di, 12.11. 7:00 0.0 l/m2 in 12 Std. -
Di, 12.11. 1:00 0.0 l/m2 in 6 Std. -
Mo, 11.11. 19:00 0.0 l/m2 in 12 Std. -
Mo, 11.11. 13:00 0.0 l/m2 in 6 Std. -
Mo, 11.11. 7:00 0.0 l/m2 in 12 Std. -
Mo, 11.11. 1:00 0.0 l/m2 in 6 Std. -
So, 10.11. 19:00 0.0 l/m2 in 12 Std. -
Ortszeit Niederschlagsmenge Niederschlagsart
Di, 12.11. 17:30 0.0 l/m2 in 1 Std. -
Di, 12.11. 17:20 keine Meldung -
Di, 12.11. 17:10 keine Meldung -
Di, 12.11. 17:00 0.0 l/m2 in 1 Std. -
Di, 12.11. 16:50 keine Meldung -
Di, 12.11. 16:40 keine Meldung -
Di, 12.11. 16:30 0.0 l/m2 in 1 Std. -
Di, 12.11. 16:00 0.0 l/m2 in 1 Std. -
Di, 12.11. 15:30 0.0 l/m2 in 1 Std. -
Di, 12.11. 15:00 0.0 l/m2 in 1 Std. -
Di, 12.11. 14:30 0.0 l/m2 in 1 Std. -
Di, 12.11. 14:00 0.0 l/m2 in 1 Std. -
Ortszeit Stärke Spitze Richtung
km/h Bft. km/h Grad Sektor
Di, 12.11. 13:00 18 3 32 180° S
Di, 12.11. 7:00 14 3 32 190° S
Di, 12.11. 1:00 9 2 33 140° SO
Mo, 11.11. 19:00 20 4 33 160° S
Mo, 11.11. 13:00 17 3 26 160° S
Mo, 11.11. 7:00 6 1 20 210° SW
Mo, 11.11. 1:00 6 1 15 220° SW
So, 10.11. 19:00 7 2 11 130° SO
Ortszeit Stärke Spitze Richtung
km/h Bft. km/h Grad Sektor
Di, 12.11. 17:30 11 2 18 140° SO
Di, 12.11. 17:20 11 2 - 140° SO
Di, 12.11. 17:10 11 2 - 150° SO
Di, 12.11. 17:00 9 2 19 140° SO
Di, 12.11. 16:50 9 2 - 140° SO
Di, 12.11. 16:40 11 2 - 150° SO
Di, 12.11. 16:30 13 3 19 160° S
Di, 12.11. 16:00 13 3 31 160° S
Di, 12.11. 15:30 18 3 32 170° S
Di, 12.11. 15:00 19 3 30 190° S
Di, 12.11. 14:30 18 3 29 180° S
Di, 12.11. 14:00 22 4 36 190° S
Ortszeit Untergrenze Bedeckung Gattung
total tief tief mittel hoch
Di, 12.11. 13:00 1500 m 7/8 7/8 - - -
Di, 12.11. 7:00 6000 m 2/8 2/8 - - -
Di, 12.11. 1:00 3900 m 7/8 7/8 - - -
Mo, 11.11. 19:00 3600 m 8/8 8/8 - - -
Mo, 11.11. 13:00 - 0/8 0/8 - - -
Mo, 11.11. 7:00 - 0/8 0/8 - - -
Mo, 11.11. 1:00 - 0/8 0/8 - - -
So, 10.11. 19:00 1380 m 7/8 7/8 - - -
Ortszeit Bedeckungsgrad in Achtel und Wolkenuntergrenze
Di, 12.11. 17:30 1(3600m)
Di, 12.11. 17:20 1(3600m)
Di, 12.11. 17:10 1(3600m)
Di, 12.11. 17:00 keine Wolken
Di, 12.11. 16:50 keine Wolken
Di, 12.11. 16:40 keine Wolken
Di, 12.11. 16:30 1(1320m)
Di, 12.11. 16:00 3(1350m)
Di, 12.11. 15:30 3(1380m)
Di, 12.11. 15:00 1(1410m)
Di, 12.11. 14:30 keine Wolken
Di, 12.11. 14:00 2(1500m)
Ortszeit Luftdruck NN (hPa) Tendenz (hPa in 3 Std.)
Di, 12.11. 13:00 1005 - 0,6
Di, 12.11. 7:00 1005 + 0,4
Di, 12.11. 1:00 1005 - 0,7
Mo, 11.11. 19:00 1007 - 1,0
Mo, 11.11. 13:00 1010 - 2,0
Mo, 11.11. 7:00 1014 - 0,6
Mo, 11.11. 1:00 1015 - 1,1
So, 10.11. 19:00 1016 + 1,1
Ortszeit Luftdruck NN (hPa) Tendenz (hPa in 3 Std.)
Di, 12.11. 17:30 1004 - 0,2
Di, 12.11. 17:20 1004 keine Meldung
Di, 12.11. 17:10 1004 keine Meldung
Di, 12.11. 17:00 1004 - 0,1
Di, 12.11. 16:50 1004 keine Meldung
Di, 12.11. 16:40 1004 keine Meldung
Di, 12.11. 16:30 1004 - 0,5
Di, 12.11. 16:00 1004 - 0,8
Di, 12.11. 15:30 1004 - 0,7
Di, 12.11. 15:00 1005 - 0,6
Di, 12.11. 14:30 1004 - 1,2
Di, 12.11. 14:00 1004 - 1,5
Ortszeit Schneehöhe (cm)
Di, 12.11. 13:00 0
Di, 12.11. 7:00 0
Di, 12.11. 1:00 0
Mo, 11.11. 19:00 0
Mo, 11.11. 13:00 0
Mo, 11.11. 7:00 0
Mo, 11.11. 1:00 0
So, 10.11. 19:00 0
Ortszeit Schneehöhe (cm)
Di, 12.11. 17:30 0
Di, 12.11. 17:20 0
Di, 12.11. 17:10 0
Di, 12.11. 17:00 0
Di, 12.11. 16:50 0
Di, 12.11. 16:40 0
Di, 12.11. 16:30 0
Di, 12.11. 16:00 0
Di, 12.11. 15:30 0
Di, 12.11. 15:00 0
Di, 12.11. 14:30 0
Di, 12.11. 14:00 0
Link zu dieser Seite / Seite empfehlen

Das Wetter in ...